createdAt,value
2023-03-01T00:00:02.552Z,1025.72
2023-03-01T00:01:02.581Z,1025.72
2023-03-01T00:02:02.575Z,1025.77
2023-03-01T00:03:02.570Z,1025.71
2023-03-01T00:04:02.537Z,1025.74
2023-03-01T00:05:02.542Z,1025.70
2023-03-01T00:06:02.543Z,1025.73
2023-03-01T00:07:02.485Z,1025.74
2023-03-01T00:08:02.466Z,1025.74
2023-03-01T00:09:02.466Z,1025.71
2023-03-01T00:10:02.469Z,1025.72
2023-03-01T00:11:02.478Z,1025.67
2023-03-01T00:12:02.431Z,1025.68
2023-03-01T00:13:02.420Z,1025.63
2023-03-01T00:14:02.403Z,1025.60
2023-03-01T00:15:02.385Z,1025.61
2023-03-01T00:16:02.388Z,1025.57
2023-03-01T00:17:02.415Z,1025.56
2023-03-01T00:18:02.362Z,1025.60
2023-03-01T00:19:02.369Z,1025.56
2023-03-01T00:20:02.347Z,1025.57
2023-03-01T00:21:02.336Z,1025.57
2023-03-01T00:23:11.898Z,1025.52
2023-03-01T00:24:11.615Z,1025.50
2023-03-01T00:25:11.600Z,1025.48
2023-03-01T00:26:11.575Z,1025.52
2023-03-01T00:27:11.570Z,1025.48
2023-03-01T00:28:11.575Z,1025.46
2023-03-01T00:29:11.545Z,1025.47
2023-03-01T00:30:11.541Z,1025.46
2023-03-01T00:31:11.601Z,1025.45
2023-03-01T00:32:11.566Z,1025.43
2023-03-01T00:33:11.523Z,1025.49
2023-03-01T00:34:11.488Z,1025.44
2023-03-01T00:35:11.475Z,1025.49
2023-03-01T00:36:11.460Z,1025.47
2023-03-01T00:37:11.450Z,1025.47
2023-03-01T00:40:31.089Z,1025.45
2023-03-01T00:41:31.021Z,1025.48
2023-03-01T00:42:31.029Z,1025.48
2023-03-01T00:43:30.999Z,1025.47
2023-03-01T00:44:30.991Z,1025.47
2023-03-01T00:45:30.975Z,1025.45
2023-03-01T00:46:31.369Z,1025.45
2023-03-01T00:47:30.964Z,1025.41
2023-03-01T00:48:30.952Z,1025.42
2023-03-01T00:49:30.971Z,1025.43
2023-03-01T00:50:30.927Z,1025.42
2023-03-01T00:51:30.960Z,1025.36
2023-03-01T00:52:30.913Z,1025.37
2023-03-01T00:53:30.890Z,1025.38
2023-03-01T00:54:30.889Z,1025.41
2023-03-01T00:55:30.889Z,1025.36
2023-03-01T00:56:31.262Z,1025.37
2023-03-01T00:57:30.889Z,1025.41
2023-03-01T00:58:30.846Z,1025.38
2023-03-01T00:59:30.840Z,1025.41
2023-03-01T01:00:30.826Z,1025.40
2023-03-01T01:01:30.936Z,1025.39
2023-03-01T01:02:30.815Z,1025.41
2023-03-01T01:03:30.815Z,1025.38
2023-03-01T01:04:30.841Z,1025.37
2023-03-01T01:05:30.781Z,1025.33
2023-03-01T01:06:31.180Z,1025.33
2023-03-01T01:07:30.755Z,1025.33
2023-03-01T01:08:30.738Z,1025.29
2023-03-01T01:09:30.758Z,1025.29
2023-03-01T01:10:30.717Z,1025.30
2023-03-01T01:11:30.758Z,1025.28
2023-03-01T01:12:30.717Z,1025.30
2023-03-01T01:13:30.685Z,1025.26
2023-03-01T01:14:30.702Z,1025.25
2023-03-01T01:15:30.698Z,1025.22
2023-03-01T01:16:30.975Z,1025.24
2023-03-01T01:17:30.663Z,1025.22
2023-03-01T01:18:30.669Z,1025.19
2023-03-01T01:19:30.624Z,1025.21
2023-03-01T01:20:30.673Z,1025.18
2023-03-01T01:21:30.599Z,1025.17
2023-03-01T01:22:30.591Z,1025.18
2023-03-01T01:23:30.576Z,1025.18
2023-03-01T01:24:30.579Z,1025.14
2023-03-01T01:25:30.570Z,1025.16
2023-03-01T01:26:30.851Z,1025.14
2023-03-01T01:27:30.575Z,1025.09
2023-03-01T01:28:30.543Z,1025.10
2023-03-01T01:29:30.518Z,1025.04
2023-03-01T01:30:30.507Z,1025.04
2023-03-01T01:31:30.513Z,1025.01
2023-03-01T01:32:30.548Z,1025.03
2023-03-01T01:33:30.472Z,1025.00
2023-03-01T01:34:30.457Z,1024.99
2023-03-01T01:35:30.462Z,1024.91
2023-03-01T01:36:30.864Z,1024.89
2023-03-01T01:37:30.424Z,1024.88
2023-03-01T01:38:30.408Z,1024.88
2023-03-01T01:39:30.396Z,1024.88
2023-03-01T01:40:30.396Z,1024.85
2023-03-01T01:41:30.383Z,1024.84
2023-03-01T01:42:30.404Z,1024.86
2023-03-01T01:43:30.359Z,1024.84
2023-03-01T01:44:30.378Z,1024.85
2023-03-01T01:45:30.343Z,1024.86
2023-03-01T01:46:30.797Z,1024.87
2023-03-01T01:47:30.344Z,1024.86
2023-03-01T01:48:30.307Z,1024.83
2023-03-01T01:49:30.303Z,1024.82
2023-03-01T01:50:30.286Z,1024.85
2023-03-01T01:51:30.278Z,1024.86
2023-03-01T01:52:30.290Z,1024.82
2023-03-01T01:53:30.271Z,1024.85
2023-03-01T01:54:30.249Z,1024.90
2023-03-01T01:55:30.226Z,1024.91
2023-03-01T01:56:30.620Z,1024.90
2023-03-01T01:57:30.207Z,1024.92
2023-03-01T01:58:30.251Z,1024.89
2023-03-01T01:59:30.184Z,1024.89
2023-03-01T02:00:30.195Z,1024.88
2023-03-01T02:01:30.161Z,1024.92
2023-03-01T02:02:30.305Z,1024.92
2023-03-01T02:03:30.287Z,1024.94
2023-03-01T02:04:30.157Z,1024.93
2023-03-01T02:05:30.131Z,1024.92
2023-03-01T02:06:30.487Z,1024.97
2023-03-01T02:07:30.102Z,1024.95
2023-03-01T02:08:30.092Z,1025.00
2023-03-01T02:09:30.082Z,1025.02
2023-03-01T02:10:30.111Z,1025.01
2023-03-01T02:11:30.066Z,1024.99
2023-03-01T02:12:30.068Z,1024.97
2023-03-01T02:13:30.037Z,1025.00
2023-03-01T02:14:30.037Z,1025.00
2023-03-01T02:15:30.017Z,1025.03
2023-03-01T02:16:30.556Z,1025.06
2023-03-01T02:17:29.998Z,1025.00
2023-03-01T02:18:29.990Z,1025.01
2023-03-01T02:19:29.970Z,1024.97
2023-03-01T02:20:30.021Z,1024.99
2023-03-01T02:21:29.950Z,1024.97
2023-03-01T02:22:30.051Z,1025.02
2023-03-01T02:23:29.936Z,1024.96
2023-03-01T02:24:29.927Z,1024.96
2023-03-01T02:25:29.913Z,1024.95
2023-03-01T02:26:30.262Z,1024.91
2023-03-01T02:27:29.886Z,1024.92
2023-03-01T02:28:29.896Z,1024.94
2023-03-01T02:29:29.881Z,1024.91
2023-03-01T02:30:29.888Z,1024.99
2023-03-01T02:31:29.972Z,1025.00
2023-03-01T02:32:29.856Z,1025.02
2023-03-01T02:33:29.861Z,1025.00
2023-03-01T02:34:29.814Z,1025.01
2023-03-01T02:35:29.831Z,1025.04
2023-03-01T02:36:30.265Z,1025.05
2023-03-01T02:37:29.781Z,1025.00
2023-03-01T02:38:29.800Z,1025.04
2023-03-01T02:39:29.764Z,1025.06
2023-03-01T02:40:29.757Z,1025.05
2023-03-01T02:41:29.744Z,1025.05
2023-03-01T02:42:29.730Z,1025.06
2023-03-01T02:43:29.758Z,1025.05
2023-03-01T02:44:29.709Z,1025.05
2023-03-01T02:45:29.704Z,1024.97
2023-03-01T02:46:30.066Z,1024.99
2023-03-01T02:47:29.693Z,1025.00
2023-03-01T02:48:29.734Z,1024.97
2023-03-01T02:49:29.653Z,1024.97
2023-03-01T02:50:29.653Z,1024.97
2023-03-01T02:51:29.642Z,1024.94
2023-03-01T02:52:29.656Z,1024.93
2023-03-01T02:53:29.611Z,1024.96
2023-03-01T02:54:29.638Z,1024.92
2023-03-01T02:55:29.597Z,1024.89
2023-03-01T02:56:29.889Z,1024.86
2023-03-01T02:57:29.601Z,1024.87
2023-03-01T02:58:29.560Z,1024.85
2023-03-01T02:59:29.558Z,1024.83
2023-03-01T03:00:29.639Z,1024.82
2023-03-01T03:01:29.531Z,1024.84
2023-03-01T03:02:29.523Z,1024.80
2023-03-01T03:03:29.612Z,1024.75
2023-03-01T03:04:29.518Z,1024.70
2023-03-01T03:05:29.496Z,1024.70
2023-03-01T03:06:29.648Z,1024.68
2023-03-01T03:07:29.462Z,1024.68
2023-03-01T03:08:29.494Z,1024.72
2023-03-01T03:09:29.492Z,1024.70
2023-03-01T03:10:29.443Z,1024.72
2023-03-01T03:11:29.424Z,1024.73
2023-03-01T03:12:29.454Z,1024.76
2023-03-01T03:13:29.528Z,1024.73
2023-03-01T03:14:29.402Z,1024.74
2023-03-01T03:15:29.422Z,1024.73
2023-03-01T03:16:29.831Z,1024.75
2023-03-01T03:17:29.357Z,1024.71
2023-03-01T03:18:29.345Z,1024.70
2023-03-01T03:19:29.338Z,1024.71
2023-03-01T03:20:29.353Z,1024.73
2023-03-01T03:21:29.352Z,1024.75
2023-03-01T03:22:29.313Z,1024.76
2023-03-01T03:23:29.302Z,1024.79
2023-03-01T03:24:29.323Z,1024.75
2023-03-01T03:25:29.271Z,1024.78
2023-03-01T03:26:29.698Z,1024.76
2023-03-01T03:27:29.259Z,1024.74
2023-03-01T03:28:29.278Z,1024.73
2023-03-01T03:29:29.227Z,1024.66
2023-03-01T03:30:29.234Z,1024.71
2023-03-01T03:31:29.248Z,1024.64
2023-03-01T03:32:29.289Z,1024.63
2023-03-01T03:33:29.218Z,1024.63
2023-03-01T03:34:29.172Z,1024.59
2023-03-01T03:35:29.180Z,1024.58
2023-03-01T03:36:29.437Z,1024.58
2023-03-01T03:37:29.171Z,1024.58
2023-03-01T03:38:29.134Z,1024.58
2023-03-01T03:39:29.123Z,1024.54
2023-03-01T03:40:29.114Z,1024.62
2023-03-01T03:41:29.096Z,1024.60
2023-03-01T03:42:29.096Z,1024.58
2023-03-01T03:43:29.101Z,1024.58
2023-03-01T03:44:29.074Z,1024.58
2023-03-01T03:45:29.098Z,1024.54
2023-03-01T03:46:29.089Z,1024.51
2023-03-01T03:47:29.031Z,1024.50
2023-03-01T03:48:29.020Z,1024.49
2023-03-01T03:49:29.015Z,1024.46
2023-03-01T03:50:29.003Z,1024.43
2023-03-01T03:51:29.063Z,1024.44
2023-03-01T03:52:29.009Z,1024.39
2023-03-01T03:53:28.970Z,1024.39
2023-03-01T03:54:29.000Z,1024.37
2023-03-01T03:55:28.962Z,1024.37
2023-03-01T03:56:29.150Z,1024.42
2023-03-01T03:57:28.971Z,1024.38
2023-03-01T03:58:28.924Z,1024.34
2023-03-01T03:59:28.911Z,1024.32
2023-03-01T04:00:28.901Z,1024.33
2023-03-01T04:01:28.939Z,1024.30
2023-03-01T04:02:28.930Z,1024.33
2023-03-01T04:03:28.864Z,1024.29
2023-03-01T04:04:28.860Z,1024.30
2023-03-01T04:05:28.901Z,1024.31
2023-03-01T04:06:29.130Z,1024.32
2023-03-01T04:07:28.829Z,1024.33
2023-03-01T04:08:28.856Z,1024.29
2023-03-01T04:09:28.808Z,1024.29
2023-03-01T04:10:28.829Z,1024.31
2023-03-01T04:11:28.786Z,1024.33
2023-03-01T04:12:28.775Z,1024.32
2023-03-01T04:13:28.765Z,1024.30
2023-03-01T04:14:28.787Z,1024.34
2023-03-01T04:15:28.830Z,1024.35
2023-03-01T04:16:29.187Z,1024.33
2023-03-01T04:17:28.721Z,1024.32
2023-03-01T04:18:28.703Z,1024.38
2023-03-01T04:19:28.693Z,1024.40
2023-03-01T04:20:28.693Z,1024.45
2023-03-01T04:21:28.720Z,1024.43
2023-03-01T04:22:28.662Z,1024.42
2023-03-01T04:23:28.647Z,1024.46
2023-03-01T04:24:28.660Z,1024.48
2023-03-01T04:25:28.654Z,1024.44
2023-03-01T04:26:29.039Z,1024.42
2023-03-01T04:27:28.610Z,1024.48
2023-03-01T04:28:28.607Z,1024.46
2023-03-01T04:29:28.588Z,1024.45
2023-03-01T04:30:28.580Z,1024.42
2023-03-01T04:31:28.631Z,1024.38
2023-03-01T04:32:28.673Z,1024.38
2023-03-01T04:33:28.554Z,1024.34
2023-03-01T04:34:28.566Z,1024.33
2023-03-01T04:35:28.639Z,1024.32
2023-03-01T04:36:28.754Z,1024.35
2023-03-01T04:37:28.513Z,1024.34
2023-03-01T04:38:28.492Z,1024.33
2023-03-01T04:39:28.520Z,1024.36
2023-03-01T04:40:28.489Z,1024.35
2023-03-01T04:41:28.477Z,1024.33
2023-03-01T04:42:28.456Z,1024.32
2023-03-01T04:43:28.438Z,1024.29
2023-03-01T04:44:28.434Z,1024.34
2023-03-01T04:45:28.463Z,1024.36
2023-03-01T04:46:28.547Z,1024.34
2023-03-01T04:47:28.399Z,1024.36
2023-03-01T04:48:28.380Z,1024.36
2023-03-01T04:49:28.371Z,1024.33
2023-03-01T04:50:28.372Z,1024.33
2023-03-01T04:51:28.390Z,1024.32
2023-03-01T04:52:28.352Z,1024.31
2023-03-01T04:53:28.337Z,1024.31
2023-03-01T04:54:28.319Z,1024.34
2023-03-01T04:55:28.392Z,1024.32
2023-03-01T04:56:28.556Z,1024.32
2023-03-01T04:57:28.286Z,1024.30
2023-03-01T04:58:28.279Z,1024.30
2023-03-01T04:59:28.275Z,1024.33
2023-03-01T05:00:28.260Z,1024.29
2023-03-01T05:01:28.272Z,1024.34
2023-03-01T05:02:28.251Z,1024.37
2023-03-01T05:03:28.232Z,1024.30
2023-03-01T05:04:28.301Z,1024.33
2023-03-01T05:05:28.216Z,1024.31
2023-03-01T05:06:28.264Z,1024.31
2023-03-01T05:07:28.228Z,1024.34
2023-03-01T05:08:28.172Z,1024.34
2023-03-01T05:09:28.156Z,1024.33
2023-03-01T05:10:28.159Z,1024.37
2023-03-01T05:11:28.177Z,1024.34
2023-03-01T05:12:28.151Z,1024.31
2023-03-01T05:13:28.117Z,1024.31
2023-03-01T05:14:28.143Z,1024.25
2023-03-01T05:15:28.103Z,1024.31
2023-03-01T05:16:28.525Z,1024.27
2023-03-01T05:17:28.074Z,1024.24
2023-03-01T05:18:28.089Z,1024.28
2023-03-01T05:19:28.063Z,1024.27
2023-03-01T05:20:28.089Z,1024.29
2023-03-01T05:21:28.028Z,1024.27
2023-03-01T05:22:28.027Z,1024.29
2023-03-01T05:23:28.016Z,1024.27
2023-03-01T05:24:28.006Z,1024.24
2023-03-01T05:25:27.990Z,1024.28
2023-03-01T05:26:28.881Z,1024.28
2023-03-01T05:27:27.974Z,1024.30
2023-03-01T05:28:27.979Z,1024.34
2023-03-01T05:29:27.954Z,1024.31
2023-03-01T05:30:27.950Z,1024.30
2023-03-01T05:31:28.040Z,1024.30
2023-03-01T05:32:27.971Z,1024.30
2023-03-01T05:33:27.909Z,1024.23
2023-03-01T05:34:27.911Z,1024.22
2023-03-01T05:35:27.925Z,1024.23
2023-03-01T05:36:27.921Z,1024.25
2023-03-01T05:37:27.863Z,1024.21
2023-03-01T05:38:27.860Z,1024.24
2023-03-01T05:39:27.862Z,1024.21
2023-03-01T05:40:27.828Z,1024.22
2023-03-01T05:41:27.858Z,1024.22
2023-03-01T05:42:27.851Z,1024.19
2023-03-01T05:43:27.793Z,1024.21
2023-03-01T05:44:27.805Z,1024.19
2023-03-01T05:45:27.784Z,1024.19
2023-03-01T05:46:27.801Z,1024.18
2023-03-01T05:47:27.758Z,1024.20
2023-03-01T05:48:27.768Z,1024.18
2023-03-01T05:49:27.740Z,1024.18
2023-03-01T05:50:27.730Z,1024.17
2023-03-01T05:51:27.747Z,1024.18
2023-03-01T05:52:27.701Z,1024.14
2023-03-01T05:53:27.688Z,1024.13
2023-03-01T05:54:27.682Z,1024.12
2023-03-01T05:55:29.136Z,1024.14
2023-03-01T05:56:27.882Z,1024.13
2023-03-01T05:57:27.694Z,1024.11
2023-03-01T05:58:27.650Z,1024.17
2023-03-01T05:59:27.657Z,1024.20
2023-03-01T06:00:27.675Z,1024.19
2023-03-01T06:01:27.616Z,1024.23
2023-03-01T06:02:27.613Z,1024.26
2023-03-01T06:03:27.598Z,1024.23
2023-03-01T06:04:28.314Z,1024.24
2023-03-01T06:05:27.768Z,1024.22
2023-03-01T06:06:29.099Z,1024.25
2023-03-01T06:07:27.566Z,1024.25
2023-03-01T06:08:27.567Z,1024.25
2023-03-01T06:09:27.734Z,1024.27
2023-03-01T06:10:27.553Z,1024.25
2023-03-01T06:11:27.503Z,1024.25
2023-03-01T06:12:27.491Z,1024.25
2023-03-01T06:13:27.486Z,1024.22
2023-03-01T06:14:27.473Z,1024.24
2023-03-01T06:15:27.453Z,1024.23
2023-03-01T06:16:27.552Z,1024.22
2023-03-01T06:17:27.433Z,1024.22
2023-03-01T06:18:27.437Z,1024.20
2023-03-01T06:19:27.421Z,1024.25
2023-03-01T06:20:27.430Z,1024.23
2023-03-01T06:21:27.393Z,1024.24
2023-03-01T06:22:27.387Z,1024.30
2023-03-01T06:23:27.375Z,1024.24
2023-03-01T06:24:27.377Z,1024.25
2023-03-01T06:25:27.383Z,1024.25
2023-03-01T06:26:27.369Z,1024.22
2023-03-01T06:27:27.328Z,1024.20
2023-03-01T06:28:27.320Z,1024.13
2023-03-01T06:29:27.317Z,1024.16
2023-03-01T06:30:27.302Z,1024.17
2023-03-01T06:31:27.394Z,1024.14
2023-03-01T06:32:27.367Z,1024.20
2023-03-01T06:33:27.264Z,1024.19
2023-03-01T06:34:27.262Z,1024.19
2023-03-01T06:35:27.262Z,1024.19
2023-03-01T06:36:27.287Z,1024.18
2023-03-01T06:37:27.228Z,1024.19
2023-03-01T06:38:27.278Z,1024.20
2023-03-01T06:39:27.209Z,1024.22
2023-03-01T06:40:27.201Z,1024.26
2023-03-01T06:41:27.186Z,1024.25
2023-03-01T06:42:27.210Z,1024.26
2023-03-01T06:43:27.182Z,1024.29
2023-03-01T06:44:27.147Z,1024.27
2023-03-01T06:45:27.155Z,1024.27
2023-03-01T06:46:27.204Z,1024.27
2023-03-01T06:47:27.114Z,1024.32
2023-03-01T06:48:27.185Z,1024.31
2023-03-01T06:49:27.098Z,1024.36
2023-03-01T06:50:27.144Z,1024.34
2023-03-01T06:51:27.079Z,1024.35
2023-03-01T06:52:27.080Z,1024.31
2023-03-01T06:53:27.159Z,1024.33
2023-03-01T06:54:27.052Z,1024.30
2023-03-01T06:55:27.038Z,1024.34
2023-03-01T06:56:27.093Z,1024.33
2023-03-01T06:57:27.061Z,1024.35
2023-03-01T06:58:27.028Z,1024.34
2023-03-01T06:59:27.002Z,1024.34
2023-03-01T07:00:26.986Z,1024.34
2023-03-01T07:01:26.969Z,1024.38
2023-03-01T07:02:27.004Z,1024.35
2023-03-01T07:03:26.944Z,1024.36
2023-03-01T07:04:26.985Z,1024.34
2023-03-01T07:05:26.920Z,1024.28
2023-03-01T07:06:26.902Z,1024.32
2023-03-01T07:07:26.938Z,1024.34
2023-03-01T07:08:26.933Z,1024.32
2023-03-01T07:09:26.911Z,1024.30
2023-03-01T07:10:26.905Z,1024.33
2023-03-01T07:11:26.877Z,1024.35
2023-03-01T07:12:26.858Z,1024.36
2023-03-01T07:13:26.837Z,1024.37
2023-03-01T07:14:26.819Z,1024.36
2023-03-01T07:15:26.849Z,1024.39
2023-03-01T07:16:26.843Z,1024.44
2023-03-01T07:17:26.824Z,1024.44
2023-03-01T07:18:26.789Z,1024.41
2023-03-01T07:19:26.780Z,1024.46
2023-03-01T07:20:26.903Z,1024.45
2023-03-01T07:21:26.780Z,1024.48
2023-03-01T07:22:26.738Z,1024.47
2023-03-01T07:23:26.722Z,1024.44
2023-03-01T07:24:26.711Z,1024.46
2023-03-01T07:25:26.704Z,1024.42
2023-03-01T07:26:26.719Z,1024.43
2023-03-01T07:27:26.691Z,1024.41
2023-03-01T07:28:26.716Z,1024.43
2023-03-01T07:29:26.673Z,1024.45
2023-03-01T07:30:26.644Z,1024.40
2023-03-01T07:31:26.720Z,1024.44
2023-03-01T07:32:26.769Z,1024.45
2023-03-01T07:33:26.649Z,1024.48
2023-03-01T07:34:26.644Z,1024.49
2023-03-01T07:35:26.678Z,1024.47
2023-03-01T07:36:26.684Z,1024.44
2023-03-01T07:37:26.632Z,1024.42
2023-03-01T07:38:26.593Z,1024.46
2023-03-01T07:39:26.579Z,1024.38
2023-03-01T07:40:26.591Z,1024.37
2023-03-01T07:41:26.555Z,1024.36
2023-03-01T07:42:26.557Z,1024.37
2023-03-01T07:43:26.559Z,1024.41
2023-03-01T07:44:26.507Z,1024.41
2023-03-01T07:45:26.580Z,1024.40
2023-03-01T07:46:26.486Z,1024.39
2023-03-01T07:47:26.475Z,1024.36
2023-03-01T07:48:26.458Z,1024.37
2023-03-01T07:49:26.454Z,1024.37
2023-03-01T07:50:26.476Z,1024.33
2023-03-01T07:51:26.468Z,1024.36
2023-03-01T07:52:26.515Z,1024.38
2023-03-01T07:53:27.265Z,1024.33
2023-03-01T07:54:26.404Z,1024.36
2023-03-01T07:55:26.414Z,1024.39
2023-03-01T07:56:26.378Z,1024.37
2023-03-01T07:57:26.376Z,1024.39
2023-03-01T07:58:26.359Z,1024.36
2023-03-01T07:59:26.348Z,1024.39
2023-03-01T08:00:26.368Z,1024.36
2023-03-01T08:01:26.410Z,1024.34
2023-03-01T08:02:26.341Z,1024.34
2023-03-01T08:03:26.308Z,1024.39
2023-03-01T08:04:26.290Z,1024.38
2023-03-01T08:05:26.311Z,1024.37
2023-03-01T08:06:26.265Z,1024.37
2023-03-01T08:07:26.261Z,1024.34
2023-03-01T08:08:26.292Z,1024.35
2023-03-01T08:09:26.233Z,1024.34
2023-03-01T08:10:26.235Z,1024.36
2023-03-01T08:11:26.309Z,1024.36
2023-03-01T08:12:26.259Z,1024.37
2023-03-01T08:13:26.192Z,1024.37
2023-03-01T08:14:26.175Z,1024.36
2023-03-01T08:15:26.207Z,1024.33
2023-03-01T08:16:26.247Z,1024.36
2023-03-01T08:17:26.143Z,1024.39
2023-03-01T08:18:26.132Z,1024.37
2023-03-01T08:19:26.114Z,1024.33
2023-03-01T08:20:26.193Z,1024.34
2023-03-01T08:21:26.120Z,1024.31
2023-03-01T08:22:26.104Z,1024.25
2023-03-01T08:23:26.072Z,1024.24
2023-03-01T08:24:26.115Z,1024.26
2023-03-01T08:25:26.083Z,1024.22
2023-03-01T08:26:26.085Z,1024.24
2023-03-01T08:27:26.032Z,1024.23
2023-03-01T08:28:26.064Z,1024.25
2023-03-01T08:29:26.025Z,1024.18
2023-03-01T08:30:26.040Z,1024.19
2023-03-01T08:31:26.072Z,1024.20
2023-03-01T08:32:26.070Z,1024.13
2023-03-01T08:33:26.037Z,1024.13
2023-03-01T08:34:25.953Z,1024.13
2023-03-01T08:35:25.966Z,1024.12
2023-03-01T08:36:25.950Z,1024.11
2023-03-01T08:37:25.956Z,1024.11
2023-03-01T08:38:25.915Z,1024.12
2023-03-01T08:39:26.094Z,1024.11
2023-03-01T08:40:25.916Z,1024.12
2023-03-01T08:41:25.903Z,1024.15
2023-03-01T08:42:25.900Z,1024.10
2023-03-01T08:43:26.450Z,1024.11
2023-03-01T08:44:25.842Z,1024.12
2023-03-01T08:45:25.853Z,1024.10
2023-03-01T08:46:25.906Z,1024.08
2023-03-01T08:47:25.820Z,1024.09
2023-03-01T08:48:25.844Z,1024.06
2023-03-01T08:49:25.793Z,1024.09
2023-03-01T08:50:25.798Z,1023.99
2023-03-01T08:51:25.794Z,1024.05
2023-03-01T08:52:25.777Z,1024.04
2023-03-01T08:53:25.762Z,1024.09
2023-03-01T08:54:25.736Z,1024.08
2023-03-01T08:55:25.740Z,1024.08
2023-03-01T08:56:25.738Z,1024.12
2023-03-01T08:57:25.881Z,1024.21
2023-03-01T08:58:25.709Z,1024.22
2023-03-01T08:59:25.692Z,1024.25
2023-03-01T09:00:25.699Z,1024.24
2023-03-01T09:01:25.666Z,1024.19
2023-03-01T09:02:25.725Z,1024.25
2023-03-01T09:03:25.661Z,1024.23
2023-03-01T09:04:25.666Z,1024.25
2023-03-01T09:05:25.620Z,1024.22
2023-03-01T09:06:25.625Z,1024.20
2023-03-01T09:07:25.633Z,1024.16
2023-03-01T09:08:25.618Z,1024.21
2023-03-01T09:09:25.589Z,1024.18
2023-03-01T09:10:25.601Z,1024.20
2023-03-01T09:11:25.555Z,1024.19
2023-03-01T09:12:25.901Z,1024.16
2023-03-01T09:13:25.538Z,1024.15
2023-03-01T09:14:25.516Z,1024.17
2023-03-01T09:15:25.529Z,1024.21
2023-03-01T09:16:25.555Z,1024.16
2023-03-01T09:17:25.538Z,1024.12
2023-03-01T09:18:25.480Z,1024.13
2023-03-01T09:19:27.323Z,1024.15
2023-03-01T09:20:25.480Z,1024.09
2023-03-01T09:21:39.158Z,1024.16
2023-03-01T09:22:27.324Z,1024.17
2023-03-01T09:23:25.435Z,1024.16
2023-03-01T09:24:25.420Z,1024.17
2023-03-01T09:25:25.405Z,1024.20
2023-03-01T09:26:25.412Z,1024.19
2023-03-01T09:27:25.408Z,1024.17
2023-03-01T09:28:30.016Z,1024.09
2023-03-01T09:29:29.333Z,1024.06
2023-03-01T09:30:25.369Z,1024.04
2023-03-01T09:31:25.340Z,1024.05
2023-03-01T09:32:25.458Z,1024.05
2023-03-01T09:33:25.343Z,1024.05
2023-03-01T09:34:25.381Z,1024.10
2023-03-01T09:35:25.324Z,1024.05
2023-03-01T09:36:25.294Z,1024.11
2023-03-01T09:37:25.285Z,1024.05
2023-03-01T09:38:26.031Z,1024.05
2023-03-01T09:39:25.281Z,1023.98
2023-03-01T09:40:25.276Z,1023.95
2023-03-01T09:41:25.239Z,1023.90
2023-03-01T09:42:25.231Z,1023.90
2023-03-01T09:43:25.216Z,1023.87
2023-03-01T09:44:25.243Z,1023.86
2023-03-01T09:45:25.235Z,1023.82
2023-03-01T09:46:25.260Z,1023.88
2023-03-01T09:47:25.203Z,1023.87
2023-03-01T09:48:25.166Z,1023.89
2023-03-01T09:49:25.157Z,1023.93
2023-03-01T09:50:25.165Z,1023.89
2023-03-01T09:51:25.133Z,1023.91
2023-03-01T09:52:25.144Z,1023.85
2023-03-01T09:53:25.122Z,1023.87
2023-03-01T09:54:25.091Z,1023.81
2023-03-01T09:55:25.116Z,1023.92
2023-03-01T09:56:25.083Z,1023.91
2023-03-01T09:57:25.061Z,1023.93
2023-03-01T09:58:25.072Z,1023.95
2023-03-01T09:59:25.081Z,1023.93
2023-03-01T10:00:25.052Z,1024.01
2023-03-01T10:01:25.034Z,1024.02
2023-03-01T10:02:25.006Z,1024.04
2023-03-01T10:03:25.006Z,1024.10
2023-03-01T10:04:25.065Z,1024.09
2023-03-01T10:05:24.986Z,1024.11
2023-03-01T10:06:34.381Z,1024.12
2023-03-01T10:07:25.984Z,1024.12
2023-03-01T10:08:24.950Z,1024.15
2023-03-01T10:09:24.948Z,1024.12
2023-03-01T10:10:24.944Z,1024.13
2023-03-01T10:11:25.435Z,1024.16
2023-03-01T10:12:24.906Z,1024.17
2023-03-01T10:13:24.901Z,1024.15
2023-03-01T10:14:24.929Z,1024.15
2023-03-01T10:15:24.887Z,1024.10
2023-03-01T10:16:25.183Z,1024.14
2023-03-01T10:17:24.848Z,1024.11
2023-03-01T10:18:24.866Z,1024.08
2023-03-01T10:19:24.851Z,1024.04
2023-03-01T10:20:24.823Z,1023.97
2023-03-01T10:21:24.833Z,1024.04
2023-03-01T10:22:24.797Z,1023.90
2023-03-01T10:23:24.789Z,1023.90
2023-03-01T10:24:24.816Z,1023.92
2023-03-01T10:25:24.795Z,1023.84
2023-03-01T10:26:24.762Z,1023.84
2023-03-01T10:27:24.758Z,1023.84
2023-03-01T10:28:24.744Z,1023.75
2023-03-01T10:29:24.757Z,1023.77
2023-03-01T10:30:24.714Z,1023.78
2023-03-01T10:31:24.721Z,1023.83
2023-03-01T10:32:25.377Z,1023.83
2023-03-01T10:33:24.682Z,1023.78
2023-03-01T10:34:24.698Z,1023.81
2023-03-01T10:35:24.712Z,1023.70
2023-03-01T10:36:24.764Z,1023.70
2023-03-01T10:37:24.633Z,1023.71
2023-03-01T10:38:24.630Z,1023.68
2023-03-01T10:39:24.629Z,1023.72
2023-03-01T10:40:24.603Z,1023.72
2023-03-01T10:41:24.613Z,1023.72
2023-03-01T10:42:24.587Z,1023.72
2023-03-01T10:43:33.888Z,1023.72
2023-03-01T10:44:24.595Z,1023.73
2023-03-01T10:45:25.894Z,1023.74
2023-03-01T10:46:24.631Z,1023.70
2023-03-01T10:47:24.536Z,1023.72
2023-03-01T10:48:24.533Z,1023.67
2023-03-01T10:49:24.518Z,1023.64
2023-03-01T10:50:24.510Z,1023.60
2023-03-01T10:51:24.507Z,1023.56
2023-03-01T10:52:24.485Z,1023.58
2023-03-01T10:53:24.478Z,1023.62
2023-03-01T10:54:24.463Z,1023.58
2023-03-01T10:55:24.458Z,1023.58
2023-03-01T10:56:24.498Z,1023.58
2023-03-01T10:57:24.433Z,1023.55
2023-03-01T10:58:24.436Z,1023.59
2023-03-01T10:59:24.410Z,1023.54
2023-03-01T11:00:24.419Z,1023.51
2023-03-01T11:01:24.455Z,1023.51
2023-03-01T11:02:26.032Z,1023.48
2023-03-01T11:03:24.388Z,1023.44
2023-03-01T11:04:24.387Z,1023.47
2023-03-01T11:05:24.350Z,1023.58
2023-03-01T11:06:24.331Z,1023.46
2023-03-01T11:07:24.316Z,1023.43
2023-03-01T11:08:24.312Z,1023.39
2023-03-01T11:09:24.346Z,1023.37
2023-03-01T11:10:24.295Z,1023.37
2023-03-01T11:11:24.288Z,1023.35
2023-03-01T11:12:24.283Z,1023.37
2023-03-01T11:13:24.274Z,1023.36
2023-03-01T11:14:27.332Z,1023.33
2023-03-01T11:15:24.236Z,1023.32
2023-03-01T11:16:24.270Z,1023.31
2023-03-01T11:17:24.228Z,1023.31
2023-03-01T11:18:33.915Z,1023.28
2023-03-01T11:19:25.202Z,1023.26
2023-03-01T11:20:24.807Z,1023.25
2023-03-01T11:21:24.190Z,1023.22
2023-03-01T11:22:24.225Z,1023.21
2023-03-01T11:23:24.154Z,1023.19
2023-03-01T11:24:24.162Z,1023.19
2023-03-01T11:25:24.149Z,1023.21
2023-03-01T11:26:24.110Z,1023.22
2023-03-01T11:27:24.127Z,1023.23
2023-03-01T11:28:24.213Z,1023.24
2023-03-01T11:29:24.090Z,1023.26
2023-03-01T11:30:24.088Z,1023.21
2023-03-01T11:31:24.125Z,1023.20
2023-03-01T11:32:24.200Z,1023.17
2023-03-01T11:33:24.031Z,1023.16
2023-03-01T11:34:24.028Z,1023.20
2023-03-01T11:35:24.013Z,1023.21
2023-03-01T11:36:24.113Z,1023.18
2023-03-01T11:37:24.015Z,1023.16
2023-03-01T11:38:23.977Z,1023.14
2023-03-01T11:39:23.968Z,1023.13
2023-03-01T11:40:23.955Z,1023.15
2023-03-01T11:41:23.955Z,1023.10
2023-03-01T11:42:23.943Z,1023.16
2023-03-01T11:43:23.920Z,1023.10
2023-03-01T11:44:23.905Z,1023.09
2023-03-01T11:45:23.908Z,1023.06
2023-03-01T11:46:23.954Z,1023.07
2023-03-01T11:47:23.992Z,1023.08
2023-03-01T11:48:23.877Z,1023.06
2023-03-01T11:49:23.857Z,1023.07
2023-03-01T11:50:23.845Z,1023.11
2023-03-01T11:51:23.829Z,1023.13
2023-03-01T11:52:23.977Z,1023.12
2023-03-01T11:53:23.812Z,1023.13
2023-03-01T11:54:23.842Z,1023.14
2023-03-01T11:55:23.784Z,1023.12
2023-03-01T11:56:24.070Z,1023.14
2023-03-01T11:57:28.921Z,1023.09
2023-03-01T11:58:24.759Z,1023.12
2023-03-01T11:59:23.761Z,1023.14
2023-03-01T12:00:23.735Z,1023.16
2023-03-01T12:01:23.798Z,1023.12
2023-03-01T12:02:23.782Z,1023.15
2023-03-01T12:03:23.718Z,1023.14
2023-03-01T12:04:23.745Z,1023.08
2023-03-01T12:05:23.711Z,1023.12
2023-03-01T12:06:23.690Z,1023.11
2023-03-01T12:07:23.655Z,1023.03
2023-03-01T12:08:23.696Z,1023.01